Time;durP1;ratioP1;P1;durP2;ratioP2;P2;SDS_P1;SDS_P2;PMS_P1;PMS_P2;Temp;Humidity;BMP_temperature;BMP_pressure;BME280_temperature;BME280_humidity;BME280_pressure;Samples;Min_cycle;Max_cycle;Signal;HPM_P1;HPM_P2
2021/08/30 00:01:54;;;;;;;21.83;10.98;;;21.70;73.20;;;;;;5013257;28;20062;-83
2021/08/30 00:04:20;;;;;;;21.40;11.00;;;21.70;73.00;;;;;;5014505;28;20440;-83
2021/08/30 00:06:48;;;;;;;17.55;10.95;;;21.70;73.00;;;;;;5014595;28;20423;-83
2021/08/30 00:09:15;;;;;;;17.33;10.63;;;21.70;72.80;;;;;;5013353;28;20091;-83
2021/08/30 00:11:40;;;;;;;25.30;11.30;;;21.70;72.80;;;;;;4997019;28;20026;-83
2021/08/30 00:14:06;;;;;;;21.77;10.75;;;21.70;72.80;;;;;;4997200;28;20037;-83
2021/08/30 00:16:32;;;;;;;21.23;11.00;;;21.70;72.80;;;;;;5014614;28;20029;-82
2021/08/30 00:18:58;;;;;;;21.75;11.45;;;21.60;72.90;;;;;;5013360;28;20034;-83
2021/08/30 00:21:24;;;;;;;18.73;11.25;;;21.70;73.00;;;;;;5013254;28;20029;-83
2021/08/30 00:23:50;;;;;;;21.08;11.15;;;21.60;73.00;;;;;;5013009;28;20067;-82
2021/08/30 00:26:16;;;;;;;24.52;11.35;;;21.60;73.10;;;;;;5012835;28;20228;-82
2021/08/30 00:28:42;;;;;;;20.05;11.15;;;21.60;73.40;;;;;;5014416;28;20041;-82
2021/08/30 00:31:08;;;;;;;26.27;12.32;;;21.50;73.50;;;;;;5013989;28;20429;-82
2021/08/30 00:33:34;;;;;;;24.13;11.65;;;21.50;73.60;;;;;;5012744;28;20483;-82
2021/08/30 00:36:00;;;;;;;17.25;11.38;;;21.50;73.40;;;;;;5019891;28;20030;-82
2021/08/30 00:38:26;;;;;;;22.55;12.52;;;21.50;73.50;;;;;;5020805;28;20034;-82
2021/08/30 00:40:52;;;;;;;20.85;11.98;;;21.50;73.50;;;;;;5021542;28;20117;-83
2021/08/30 00:43:18;;;;;;;29.50;12.77;;;21.50;73.40;;;;;;5014601;28;20033;-83
2021/08/30 00:45:44;;;;;;;19.60;12.65;;;21.40;73.50;;;;;;4996119;28;20030;-83
2021/08/30 00:48:09;;;;;;;23.50;13.65;;;21.50;73.30;;;;;;4996336;28;20038;-83
2021/08/30 00:50:36;;;;;;;19.95;12.88;;;21.50;73.30;;;;;;5012710;28;20041;-83
2021/08/30 00:53:02;;;;;;;19.88;12.85;;;21.50;73.30;;;;;;5012275;28;20041;-83
2021/08/30 00:55:28;;;;;;;24.40;13.45;;;21.40;73.30;;;;;;5012990;28;20065;-84
2021/08/30 00:57:55;;;;;;;28.25;14.27;;;21.50;73.30;;;;;;4996077;28;20041;-84
2021/08/30 01:00:21;;;;;;;24.55;13.27;;;21.50;73.40;;;;;;5012526;28;20030;-84
2021/08/30 01:02:47;;;;;;;22.00;13.93;;;21.40;73.40;;;;;;5013725;28;20044;-84
2021/08/30 01:05:15;;;;;;;18.15;12.82;;;21.40;74.00;;;;;;5013654;28;20481;-82
2021/08/30 01:07:49;;;;;;;17.30;12.48;;;21.40;73.30;;;;;;5012542;28;20048;-82
2021/08/30 01:10:45;;;;;;;21.60;13.75;;;21.40;73.50;;;;;;5012533;28;20459;-82
2021/08/30 01:13:16;;;;;;;22.83;11.98;;;21.40;73.70;;;;;;5012097;28;20092;-83
2021/08/30 01:15:44;;;;;;;20.85;13.68;;;21.30;73.70;;;;;;4996141;28;20489;-83
2021/08/30 01:18:18;;;;;;;17.70;13.20;;;21.30;73.90;;;;;;5013543;28;20389;-84
2021/08/30 01:20:56;;;;;;;20.50;13.80;;;21.30;73.90;;;;;;5013516;28;20033;-84
2021/08/30 01:23:26;;;;;;;24.33;14.00;;;21.30;73.90;;;;;;5012063;28;20037;-83
2021/08/30 01:25:55;;;;;;;20.55;14.13;;;21.20;74.00;;;;;;5018163;28;20068;-83
2021/08/30 01:28:23;;;;;;;26.95;14.18;;;21.20;74.10;;;;;;5027807;28;20049;-82
2021/08/30 01:30:50;;;;;;;22.02;14.60;;;21.20;74.10;;;;;;5033008;28;20085;-82
2021/08/30 01:33:16;;;;;;;22.35;14.00;;;21.20;74.20;;;;;;5014924;28;20121;-83
2021/08/30 01:35:42;;;;;;;20.45;14.30;;;21.20;74.40;;;;;;5012825;28;20061;-83
2021/08/30 01:38:09;;;;;;;22.20;14.82;;;21.20;74.40;;;;;;5012880;28;20484;-83
2021/08/30 01:40:37;;;;;;;22.48;14.48;;;21.20;74.40;;;;;;5011921;28;20057;-83
2021/08/30 01:43:04;;;;;;;22.08;15.35;;;21.20;74.50;;;;;;5013367;28;20034;-83
2021/08/30 01:45:32;;;;;;;21.02;14.88;;;21.20;74.60;;;;;;5013258;28;20033;-83
2021/08/30 01:48:04;;;;;;;26.05;14.70;;;21.20;74.60;;;;;;5012018;28;20037;-83
2021/08/30 01:50:31;;;;;;;21.42;14.45;;;21.10;74.50;;;;;;5013128;28;20087;-83
2021/08/30 01:52:59;;;;;;;23.15;15.43;;;21.10;74.60;;;;;;5011925;28;20042;-83
2021/08/30 02:00:45;;;;;;;20.75;15.27;;;21.10;74.70;;;;;;5013010;28;20030;-84
2021/08/30 02:03:12;;;;;;;22.67;14.60;;;21.10;74.80;;;;;;5011966;28;20091;-84
2021/08/30 02:05:38;;;;;;;25.50;15.18;;;21.00;74.80;;;;;;5015379;28;20065;-84
2021/08/30 02:08:05;;;;;;;24.70;15.82;;;21.00;74.90;;;;;;5016830;28;20112;-84
2021/08/30 02:10:31;;;;;;;27.35;14.88;;;21.00;74.90;;;;;;5016975;28;20041;-84
2021/08/30 02:12:57;;;;;;;25.17;14.43;;;21.00;74.80;;;;;;5015451;28;20447;-84
2021/08/30 02:15:23;;;;;;;24.15;14.30;;;21.00;74.70;;;;;;5016065;28;20160;-84
2021/08/30 02:17:55;;;;;;;21.00;13.90;;;21.00;74.80;;;;;;5022198;28;20088;-84
2021/08/30 02:20:28;;;;;;;27.00;14.85;;;21.00;74.90;;;;;;5024986;28;20069;-83
2021/08/30 02:22:56;;;;;;;22.45;14.60;;;21.00;75.00;;;;;;5023847;28;20133;-84
2021/08/30 02:25:23;;;;;;;21.02;14.23;;;21.00;75.00;;;;;;5016336;28;20033;-84
2021/08/30 02:27:55;;;;;;;20.35;13.25;;;20.90;75.10;;;;;;5014972;28;20038;-84
2021/08/30 02:30:31;;;;;;;20.38;13.02;;;21.00;75.30;;;;;;5016133;28;20064;-84
2021/08/30 02:33:04;;;;;;;24.42;13.25;;;21.00;75.20;;;;;;5016348;28;20404;-84
2021/08/30 02:35:32;;;;;;;21.08;13.98;;;20.90;75.30;;;;;;5015275;28;20100;-85
2021/08/30 02:38:00;;;;;;;20.58;13.00;;;20.90;75.40;;;;;;4999183;28;20037;-84
2021/08/30 02:40:28;;;;;;;21.98;13.48;;;20.90;75.40;;;;;;5016342;28;20073;-84
2021/08/30 02:42:59;;;;;;;21.02;14.15;;;20.90;75.30;;;;;;5015212;28;20088;-83
2021/08/30 02:45:27;;;;;;;22.42;13.38;;;20.90;75.50;;;;;;5016225;28;20077;-83
2021/08/30 02:47:56;;;;;;;25.23;13.35;;;20.90;75.40;;;;;;5016320;28;20079;-83
2021/08/30 02:50:23;;;;;;;18.48;12.48;;;20.90;75.50;;;;;;5015309;28;20041;-83
2021/08/30 02:52:51;;;;;;;20.95;12.75;;;20.90;75.80;;;;;;5015223;28;20459;-83
2021/08/30 02:55:18;;;;;;;20.15;13.18;;;20.90;75.80;;;;;;5014869;28;20395;-83
2021/08/30 02:57:49;;;;;;;18.30;12.30;;;20.90;75.70;;;;;;5013953;28;20366;-83
2021/08/30 03:00:16;;;;;;;19.08;11.77;;;20.90;75.80;;;;;;5014624;28;20061;-83
2021/08/30 03:02:43;;;;;;;24.63;13.23;;;20.90;75.70;;;;;;5014760;28;20049;-85
2021/08/30 03:05:11;;;;;;;17.95;12.32;;;20.90;75.50;;;;;;4998070;28;20030;-85
2021/08/30 03:07:38;;;;;;;15.48;11.90;;;20.90;75.50;;;;;;4998650;28;20054;-85
2021/08/30 03:10:06;;;;;;;20.98;11.60;;;21.00;75.50;;;;;;5025120;28;20044;-85
2021/08/30 03:12:40;;;;;;;24.25;11.88;;;21.00;75.50;;;;;;5011396;28;20042;-85
2021/08/30 03:15:11;;;;;;;19.85;11.25;;;21.00;75.60;;;;;;5022236;28;20034;-85
2021/08/30 03:17:38;;;;;;;20.40;12.52;;;21.00;75.60;;;;;;5009384;28;20038;-83
2021/08/30 03:20:06;;;;;;;17.30;11.20;;;21.00;75.80;;;;;;5011674;28;20038;-83
2021/08/30 03:22:34;;;;;;;20.77;12.18;;;21.00;75.90;;;;;;4997842;28;20037;-83
2021/08/30 03:25:02;;;;;;;20.42;11.60;;;21.10;75.90;;;;;;5013992;28;20424;-83
2021/08/30 03:27:29;;;;;;;18.75;11.75;;;21.10;75.90;;;;;;5014123;28;20116;-82
2021/08/30 03:29:57;;;;;;;23.05;12.48;;;21.10;75.90;;;;;;4997337;28;20060;-82
2021/08/30 03:32:24;;;;;;;16.05;10.95;;;21.10;76.10;;;;;;5015119;28;20065;-83
2021/08/30 03:34:50;;;;;;;22.27;11.00;;;21.10;76.00;;;;;;5014279;28;20434;-83
2021/08/30 03:37:16;;;;;;;19.02;11.75;;;21.20;76.00;;;;;;5015416;28;20390;-83
2021/08/30 03:39:45;;;;;;;18.23;12.23;;;21.20;75.90;;;;;;5014142;28;20116;-82
2021/08/30 03:42:12;;;;;;;18.75;11.50;;;21.20;76.00;;;;;;5014246;28;20435;-83
2021/08/30 03:44:39;;;;;;;14.90;11.18;;;21.20;76.20;;;;;;5014230;28;20033;-90
2021/08/30 03:47:06;;;;;;;18.40;10.93;;;21.20;76.10;;;;;;4995843;28;20116;-89
2021/08/30 03:49:35;;;;;;;19.50;11.38;;;21.20;76.20;;;;;;5012817;28;20033;-90
2021/08/30 03:52:03;;;;;;;16.00;11.93;;;21.20;76.40;;;;;;5013273;28;20030;-90
2021/08/30 03:54:29;;;;;;;20.23;11.98;;;21.20;76.60;;;;;;5013570;28;20061;-89
2021/08/30 03:56:55;;;;;;;19.02;10.93;;;21.20;76.60;;;;;;5013493;28;20045;-89
2021/08/30 03:59:23;;;;;;;18.73;11.00;;;21.20;76.60;;;;;;5016737;28;20026;-91
2021/08/30 04:01:52;;;;;;;16.35;10.88;;;21.20;76.60;;;;;;5035628;28;20054;-93
2021/08/30 04:04:21;;;;;;;20.85;10.95;;;21.30;76.80;;;;;;5033085;28;20025;-94
2021/08/30 04:06:47;;;;;;;19.60;11.40;;;21.30;77.00;;;;;;5040060;28;20026;-95
2021/08/30 04:09:18;;;;;;;19.90;10.98;;;21.30;77.20;;;;;;5039802;28;20021;-85
2021/08/30 04:11:44;;;;;;;15.20;10.73;;;21.30;77.60;;;;;;5035022;28;20042;-95
2021/08/30 04:14:12;;;;;;;14.63;9.80;;;21.30;77.80;;;;;;4997895;28;20037;-96
2021/08/30 04:16:42;;;;;;;18.33;10.75;;;21.30;78.20;;;;;;5012734;28;20057;-96
2021/08/30 04:19:08;;;;;;;16.63;10.63;;;21.30;78.50;;;;;;5010373;28;20030;-96
2021/08/30 04:21:34;;;;;;;13.48;9.85;;;21.30;79.10;;;;;;4989884;28;20516;-95
2021/08/30 04:24:00;;;;;;;20.38;11.52;;;21.30;79.20;;;;;;5013593;28;20389;-89
2021/08/30 04:26:26;;;;;;;16.83;10.75;;;21.30;79.50;;;;;;5008058;28;20042;-90
2021/08/30 04:28:52;;;;;;;16.10;11.43;;;21.30;79.90;;;;;;4995793;28;20488;-93
2021/08/30 04:31:19;;;;;;;21.38;11.68;;;21.30;80.30;;;;;;5013850;28;20148;-87
2021/08/30 04:33:45;;;;;;;18.88;12.48;;;21.30;80.80;;;;;;4996298;28;20033;-88
2021/08/30 04:36:11;;;;;;;20.77;11.48;;;21.30;80.80;;;;;;5012763;28;20041;-85
2021/08/30 04:38:37;;;;;;;19.13;11.38;;;21.30;80.80;;;;;;5011491;28;20040;-86
2021/08/30 04:41:03;;;;;;;17.27;11.43;;;21.30;81.20;;;;;;5013691;28;20034;-87
2021/08/30 04:43:29;;;;;;;21.10;11.70;;;21.30;81.50;;;;;;5012754;28;20041;-86
2021/08/30 04:45:54;;;;;;;19.55;12.02;;;21.20;81.90;;;;;;5012991;28;20112;-87
2021/08/30 04:48:21;;;;;;;18.17;11.90;;;21.30;82.00;;;;;;5014187;28;20034;-86
2021/08/30 04:50:46;;;;;;;16.55;10.43;;;21.30;82.10;;;;;;5032602;28;20034;-85
2021/08/30 04:53:12;;;;;;;16.33;11.20;;;21.30;82.10;;;;;;5033086;28;20085;-85
2021/08/30 04:55:38;;;;;;;19.45;11.75;;;21.30;82.80;;;;;;5029199;28;20030;-85
2021/08/30 04:58:07;;;;;;;15.77;11.48;;;21.30;83.10;;;;;;5018147;28;20034;-86
2021/08/30 05:00:34;;;;;;;24.85;12.77;;;21.30;83.40;;;;;;4996790;28;20093;-87
2021/08/30 05:03:00;;;;;;;21.55;11.88;;;21.30;83.60;;;;;;4997254;28;20408;-86
2021/08/30 05:05:26;;;;;;;19.08;11.95;;;21.30;83.60;;;;;;4996220;28;20120;-86
2021/08/30 05:07:52;;;;;;;21.08;13.13;;;21.30;83.60;;;;;;5012488;28;20029;-86
2021/08/30 05:10:18;;;;;;;20.83;12.88;;;21.30;84.20;;;;;;4995780;28;20034;-85
2021/08/30 05:12:43;;;;;;;21.08;12.70;;;21.30;84.50;;;;;;5013488;28;20377;-85
2021/08/30 05:15:10;;;;;;;22.52;13.18;;;21.20;84.40;;;;;;5012475;28;20132;-86
2021/08/30 05:17:36;;;;;;;22.88;14.00;;;21.20;84.60;;;;;;5012308;28;20038;-84
2021/08/30 05:20:03;;;;;;;21.25;13.82;;;21.20;84.90;;;;;;5012074;28;20045;-88
2021/08/30 05:22:29;;;;;;;19.83;12.95;;;21.20;85.20;;;;;;4995460;28;20037;-88
2021/08/30 05:24:55;;;;;;;21.10;13.63;;;21.20;85.50;;;;;;5011742;28;20164;-88
2021/08/30 05:27:20;;;;;;;22.20;13.23;;;21.10;85.70;;;;;;5011771;28;20041;-87
2021/08/30 05:29:46;;;;;;;20.20;13.50;;;21.20;85.70;;;;;;5013123;28;20034;-85
2021/08/30 05:32:12;;;;;;;16.65;11.93;;;21.20;86.00;;;;;;5012148;28;20044;-88
2021/08/30 05:34:38;;;;;;;22.40;13.38;;;21.20;86.00;;;;;;5011574;28;20408;-88
2021/08/30 05:37:04;;;;;;;22.35;13.68;;;21.30;86.10;;;;;;5011469;28;20033;-89
2021/08/30 05:39:30;;;;;;;20.48;14.15;;;21.30;85.90;;;;;;5011051;28;20038;-89
2021/08/30 05:41:56;;;;;;;19.67;14.07;;;21.30;85.60;;;;;;4995372;28;20033;-89
2021/08/30 05:44:22;;;;;;;21.90;13.75;;;21.30;85.40;;;;;;5024292;28;20034;-89
2021/08/30 05:46:50;;;;;;;29.55;16.20;;;21.30;85.20;;;;;;5016525;28;20507;-89
2021/08/30 05:49:16;;;;;;;21.80;14.13;;;21.30;84.90;;;;;;5017443;28;20026;-89
2021/08/30 05:51:42;;;;;;;23.50;15.05;;;21.30;84.90;;;;;;5013544;28;20060;-89
2021/08/30 05:54:08;;;;;;;22.63;13.82;;;21.30;85.00;;;;;;5012677;28;20128;-89
2021/08/30 05:56:34;;;;;;;24.60;14.88;;;21.30;85.10;;;;;;5011421;28;20457;-89
2021/08/30 05:59:00;;;;;;;20.10;12.98;;;21.20;84.90;;;;;;5011342;28;20172;-90
2021/08/30 06:01:25;;;;;;;24.90;14.02;;;21.30;85.10;;;;;;5012467;28;20393;-91
2021/08/30 06:03:51;;;;;;;23.65;15.05;;;21.30;85.10;;;;;;5009397;28;20046;-89
2021/08/30 06:06:17;;;;;;;24.58;15.32;;;21.30;85.30;;;;;;4994581;28;20416;-89
2021/08/30 06:08:43;;;;;;;21.45;14.18;;;21.30;85.30;;;;;;4995413;28;20097;-90
2021/08/30 06:11:09;;;;;;;23.55;15.13;;;21.30;85.40;;;;;;4982804;28;20461;-89
2021/08/30 06:13:35;;;;;;;22.27;14.10;;;21.30;85.30;;;;;;4977517;28;20120;-89
2021/08/30 06:16:01;;;;;;;23.35;14.40;;;21.30;85.30;;;;;;4995048;28;20098;-90
2021/08/30 06:18:27;;;;;;;20.58;13.95;;;21.30;85.30;;;;;;4994471;28;20421;-90
2021/08/30 06:20:53;;;;;;;22.42;14.05;;;21.40;85.30;;;;;;4990826;28;20042;-85
2021/08/30 06:23:19;;;;;;;23.45;14.30;;;21.40;85.20;;;;;;4975407;28;20513;-86
2021/08/30 06:25:45;;;;;;;23.15;14.55;;;21.40;85.70;;;;;;4991517;28;20034;-85
2021/08/30 06:28:12;;;;;;;21.85;14.60;;;21.40;85.10;;;;;;4975189;28;20516;-87
2021/08/30 06:30:38;;;;;;;22.75;14.20;;;21.40;85.10;;;;;;4974163;28;20084;-86
2021/08/30 06:33:04;;;;;;;25.40;14.43;;;21.40;85.00;;;;;;4990415;28;20046;-86
2021/08/30 06:35:31;;;;;;;18.88;13.77;;;21.40;84.90;;;;;;4995813;28;20038;-86
2021/08/30 06:37:56;;;;;;;19.35;13.38;;;21.40;84.80;;;;;;4980565;28;20026;-84
2021/08/30 06:40:23;;;;;;;19.58;13.45;;;21.40;84.60;;;;;;4994599;28;20033;-85
2021/08/30 06:42:51;;;;;;;21.50;13.98;;;21.40;84.60;;;;;;4990656;28;20147;-85
2021/08/30 06:45:18;;;;;;;22.05;13.45;;;21.50;84.70;;;;;;4990557;28;20042;-86
2021/08/30 06:47:44;;;;;;;22.27;13.65;;;21.50;85.40;;;;;;4974320;28;20093;-85
2021/08/30 06:50:11;;;;;;;21.55;14.60;;;21.50;84.80;;;;;;4974170;28;20038;-84
2021/08/30 06:52:37;;;;;;;22.70;13.80;;;21.50;84.70;;;;;;4993616;28;20096;-86
2021/08/30 06:55:03;;;;;;;24.10;14.50;;;21.60;84.70;;;;;;4993860;28;20062;-85
2021/08/30 06:57:33;;;;;;;23.13;14.38;;;21.60;84.80;;;;;;4993822;28;20133;-83
2021/08/30 06:59:59;;;;;;;17.75;14.05;;;21.70;85.00;;;;;;4993770;28;20038;-85
2021/08/30 07:02:25;;;;;;;20.30;14.07;;;21.70;85.00;;;;;;4993871;28;20089;-85
2021/08/30 07:04:51;;;;;;;20.50;14.13;;;21.80;84.90;;;;;;4993863;28;20046;-85
2021/08/30 07:07:17;;;;;;;19.85;13.95;;;21.80;84.90;;;;;;4993854;28;20125;-85
2021/08/30 07:09:43;;;;;;;24.60;14.63;;;21.80;84.50;;;;;;4995111;28;20308;-83
2021/08/30 07:12:09;;;;;;;21.35;14.35;;;21.80;84.30;;;;;;4993767;28;20039;-82
2021/08/30 07:14:35;;;;;;;21.27;13.70;;;21.90;84.30;;;;;;4993582;28;20031;-82
2021/08/30 07:17:01;;;;;;;21.75;14.45;;;21.90;84.20;;;;;;4994987;28;20121;-82
2021/08/30 07:19:26;;;;;;;20.23;13.70;;;22.00;84.30;;;;;;4993766;28;20045;-79
2021/08/30 07:21:52;;;;;;;23.65;14.73;;;22.00;84.10;;;;;;4993663;28;20037;-81
2021/08/30 07:24:18;;;;;;;24.95;15.18;;;22.00;83.90;;;;;;4994706;28;20038;-82
2021/08/30 07:26:44;;;;;;;21.30;14.15;;;22.00;83.70;;;;;;4994786;28;20034;-81
2021/08/30 07:29:10;;;;;;;21.60;14.23;;;22.00;83.80;;;;;;4993636;28;20092;-82
2021/08/30 07:31:37;;;;;;;22.05;13.52;;;22.10;83.80;;;;;;4994443;28;20058;-81
2021/08/30 07:34:03;;;;;;;22.83;14.07;;;22.10;83.90;;;;;;4994681;28;20042;-82
2021/08/30 07:36:29;;;;;;;19.77;13.27;;;22.10;83.90;;;;;;4993403;28;20125;-82
2021/08/30 07:38:56;;;;;;;22.35;14.15;;;22.10;83.60;;;;;;4977196;28;20504;-81
2021/08/30 07:41:22;;;;;;;18.88;13.25;;;22.10;83.60;;;;;;4993458;28;20041;-82
2021/08/30 07:43:48;;;;;;;20.67;13.50;;;22.10;83.60;;;;;;4977201;28;20037;-82
2021/08/30 07:46:19;;;;;;;20.15;13.18;;;22.10;83.50;;;;;;4977147;28;20422;-82
2021/08/30 07:48:45;;;;;;;23.92;13.85;;;22.10;83.40;;;;;;4993119;28;20066;-82
2021/08/30 07:51:11;;;;;;;21.23;14.65;;;22.10;83.40;;;;;;4994489;28;20034;-82
2021/08/30 07:53:40;;;;;;;25.08;14.82;;;22.10;83.60;;;;;;4993084;28;20496;-82
2021/08/30 07:56:06;;;;;;;21.83;16.30;;;22.10;83.60;;;;;;4992995;28;20038;-82
2021/08/30 07:58:32;;;;;;;23.50;15.63;;;22.00;83.60;;;;;;4994326;28;20417;-82
2021/08/30 08:00:58;;;;;;;23.40;17.40;;;22.10;83.70;;;;;;4994323;28;20042;-82
2021/08/30 08:03:24;;;;;;;24.80;17.45;;;22.00;83.50;;;;;;4992541;28;20034;-83
2021/08/30 08:05:50;;;;;;;24.40;17.00;;;22.00;83.50;;;;;;4992991;28;20405;-82
2021/08/30 08:08:16;;;;;;;22.08;15.82;;;22.00;83.40;;;;;;4976766;28;20037;-82
2021/08/30 08:10:43;;;;;;;23.50;15.90;;;22.00;83.30;;;;;;4994020;28;20046;-82
2021/08/30 08:13:10;;;;;;;21.88;16.27;;;22.00;83.30;;;;;;4993826;28;20042;-82
2021/08/30 08:15:36;;;;;;;21.08;15.52;;;22.00;83.20;;;;;;4993919;28;20117;-82
2021/08/30 08:18:03;;;;;;;24.75;16.42;;;22.00;83.20;;;;;;4994102;28;20519;-82
2021/08/30 08:20:31;;;;;;;21.42;14.73;;;22.00;83.30;;;;;;4992378;28;20078;-79
2021/08/30 08:22:58;;;;;;;19.88;14.48;;;22.00;83.30;;;;;;4993759;28;20054;-82
2021/08/30 08:25:24;;;;;;;22.10;14.75;;;22.00;83.20;;;;;;4976096;28;20184;-82
2021/08/30 08:27:50;;;;;;;23.02;13.82;;;22.00;83.10;;;;;;4992532;28;20463;-81
2021/08/30 08:30:16;;;;;;;22.92;14.60;;;22.00;83.20;;;;;;4993291;28;20050;-82
2021/08/30 08:32:43;;;;;;;20.88;14.15;;;22.00;83.20;;;;;;4975962;28;20034;-82
2021/08/30 08:35:10;;;;;;;17.90;13.40;;;22.10;83.30;;;;;;4992420;28;20037;-81
2021/08/30 08:37:36;;;;;;;18.65;13.25;;;22.10;83.40;;;;;;4992243;28;20129;-82
2021/08/30 08:40:03;;;;;;;21.25;13.38;;;22.20;83.40;;;;;;4992201;28;20113;-81
2021/08/30 08:42:29;;;;;;;21.02;13.80;;;22.20;83.30;;;;;;4993370;28;20038;-81
2021/08/30 08:44:55;;;;;;;17.38;13.13;;;22.30;83.30;;;;;;4992075;28;20113;-81
2021/08/30 08:47:21;;;;;;;17.38;12.57;;;22.40;83.00;;;;;;4992180;28;20536;-81
2021/08/30 08:49:51;;;;;;;18.42;12.88;;;22.50;82.80;;;;;;4993267;28;20525;-81
2021/08/30 08:52:21;;;;;;;18.05;12.40;;;22.50;82.50;;;;;;4993448;28;20475;-81
2021/08/30 08:54:47;;;;;;;19.50;12.57;;;22.60;82.60;;;;;;4993187;28;20180;-82
2021/08/30 08:57:13;;;;;;;15.50;11.75;;;22.70;82.40;;;;;;4975639;28;20030;-82
2021/08/30 08:59:39;;;;;;;16.52;11.93;;;22.70;82.10;;;;;;4992971;28;20576;-82
2021/08/30 09:02:06;;;;;;;18.73;13.25;;;22.70;81.90;;;;;;4975604;28;20116;-82
2021/08/30 09:04:34;;;;;;;19.92;12.57;;;22.80;82.00;;;;;;4992526;28;20038;-81
2021/08/30 09:07:13;;;;;;;17.55;11.68;;;22.80;81.90;;;;;;4976228;28;20125;-83
2021/08/30 09:09:41;;;;;;;16.30;11.65;;;22.90;81.60;;;;;;4992550;28;20117;-82
2021/08/30 09:12:19;;;;;;;15.48;10.95;;;23.00;81.60;;;;;;4993510;28;20064;-80
2021/08/30 09:14:46;;;;;;;14.80;11.35;;;23.00;81.40;;;;;;4991620;28;20038;-81
2021/08/30 09:17:12;;;;;;;17.95;12.05;;;23.00;81.50;;;;;;4993808;28;20034;-82
2021/08/30 09:19:39;;;;;;;16.85;11.25;;;23.00;81.50;;;;;;4993884;28;20031;-83
2021/08/30 09:22:07;;;;;;;15.90;11.50;;;23.10;81.30;;;;;;4992404;28;20060;-81
2021/08/30 09:24:33;;;;;;;16.98;11.10;;;23.10;81.40;;;;;;4993362;28;20088;-81
2021/08/30 09:27:04;;;;;;;17.08;11.70;;;23.10;81.30;;;;;;4976167;28;20034;-81
2021/08/30 09:29:32;;;;;;;13.88;10.20;;;23.20;81.30;;;;;;4992256;28;20519;-81
2021/08/30 09:32:15;;;;;;;14.38;10.55;;;23.20;80.90;;;;;;4992013;28;20061;-81
2021/08/30 09:34:57;;;;;;;13.82;10.40;;;23.20;81.00;;;;;;4993305;28;20050;-83
2021/08/30 09:37:25;;;;;;;15.18;10.57;;;23.20;80.80;;;;;;4992433;28;20496;-84
2021/08/30 09:40:00;;;;;;;14.38;9.95;;;23.30;80.70;;;;;;4993437;28;20040;-83
2021/08/30 09:42:27;;;;;;;13.52;9.95;;;23.30;80.80;;;;;;4992071;28;20065;-83
2021/08/30 09:44:55;;;;;;;12.90;9.85;;;23.30;80.60;;;;;;4992006;28;20606;-83
2021/08/30 09:47:21;;;;;;;11.75;9.50;;;23.30;80.50;;;;;;4992120;28;20065;-82
2021/08/30 09:49:55;;;;;;;13.80;10.27;;;23.30;80.40;;;;;;4993283;28;20459;-83
2021/08/30 09:52:22;;;;;;;13.65;8.93;;;23.40;80.50;;;;;;4991972;28;20448;-85
2021/08/30 09:54:49;;;;;;;17.33;9.98;;;23.40;80.20;;;;;;4975900;28;20038;-84
2021/08/30 09:57:16;;;;;;;15.75;10.10;;;23.40;80.20;;;;;;4975764;28;20097;-83
2021/08/30 09:59:43;;;;;;;17.63;10.95;;;23.40;80.20;;;;;;4993233;28;20030;-82
2021/08/30 10:02:12;;;;;;;16.90;9.25;;;23.40;80.20;;;;;;4992650;28;20026;-83
2021/08/30 10:04:40;;;;;;;13.05;10.32;;;23.40;80.10;;;;;;4992222;28;20084;-84
2021/08/30 10:07:08;;;;;;;13.95;9.32;;;23.50;80.10;;;;;;4991088;28;20416;-84
2021/08/30 10:09:34;;;;;;;12.50;9.88;;;23.60;80.00;;;;;;4991074;28;20040;-84
2021/08/30 10:12:01;;;;;;;17.30;10.45;;;23.60;80.10;;;;;;4974614;28;20034;-84
2021/08/30 10:14:29;;;;;;;12.45;10.10;;;23.60;80.00;;;;;;4992160;28;20493;-84
2021/08/30 10:17:02;;;;;;;13.52;9.93;;;23.60;80.10;;;;;;4992213;28;20031;-84
2021/08/30 10:19:34;;;;;;;11.60;9.23;;;23.60;79.90;;;;;;4974798;28;20038;-84
2021/08/30 10:22:13;;;;;;;13.38;9.35;;;23.70;79.80;;;;;;4992140;28;20397;-84
2021/08/30 10:24:41;;;;;;;11.38;9.52;;;23.70;79.70;;;;;;4974627;28;20132;-84
2021/08/30 10:27:09;;;;;;;10.38;9.25;;;23.70;79.50;;;;;;4993987;28;20038;-84
2021/08/30 10:29:38;;;;;;;10.63;8.65;;;23.70;79.30;;;;;;4978328;28;20041;-84
2021/08/30 10:32:05;;;;;;;12.23;9.57;;;23.70;79.30;;;;;;4995589;28;20560;-84
2021/08/30 10:34:33;;;;;;;11.48;8.82;;;23.70;79.30;;;;;;4995775;28;20034;-84
2021/08/30 10:37:01;;;;;;;13.13;9.18;;;23.70;79.30;;;;;;4994468;28;20031;-84
2021/08/30 10:39:41;;;;;;;12.90;8.98;;;23.80;79.40;;;;;;4994447;28;20027;-83
2021/08/30 10:42:13;;;;;;;12.43;9.13;;;23.70;79.30;;;;;;4994172;28;20091;-84
2021/08/30 10:44:54;;;;;;;13.15;8.90;;;23.80;79.20;;;;;;4978144;28;20034;-84
2021/08/30 10:47:24;;;;;;;12.73;8.95;;;23.80;79.10;;;;;;4994240;28;20038;-84
2021/08/30 10:49:51;;;;;;;10.90;8.85;;;23.80;79.00;;;;;;4994308;28;20062;-84
2021/08/30 10:52:17;;;;;;;11.38;9.10;;;23.80;78.90;;;;;;4994043;28;20026;-84
2021/08/30 10:54:59;;;;;;;12.00;8.32;;;23.90;79.00;;;;;;4995326;28;20519;-84
2021/08/30 10:57:39;;;;;;;14.98;9.18;;;23.80;79.00;;;;;;4995327;28;20030;-83
2021/08/30 11:00:07;;;;;;;11.88;9.13;;;23.90;78.90;;;;;;4995253;28;20037;-84
2021/08/30 11:02:45;;;;;;;13.35;9.68;;;23.90;78.80;;;;;;4995309;28;20416;-83
2021/08/30 11:05:11;;;;;;;12.43;9.35;;;23.90;78.80;;;;;;4994126;28;20527;-84
2021/08/30 11:07:37;;;;;;;11.73;9.18;;;23.90;78.80;;;;;;4995283;28;20034;-84
2021/08/30 11:10:05;;;;;;;12.27;9.10;;;23.90;78.80;;;;;;4995083;28;20050;-84
2021/08/30 11:12:31;;;;;;;11.55;8.68;;;23.90;78.70;;;;;;4994997;28;20049;-84
2021/08/30 11:14:58;;;;;;;14.82;8.80;;;23.90;78.80;;;;;;4994919;28;20129;-84
2021/08/30 11:17:29;;;;;;;10.23;8.27;;;23.90;78.70;;;;;;4994111;28;20018;-84
2021/08/30 11:19:56;;;;;;;14.15;9.20;;;23.90;78.60;;;;;;4995079;28;20096;-84
2021/08/30 11:22:22;;;;;;;10.27;8.50;;;23.90;78.60;;;;;;4993544;28;20120;-84
2021/08/30 11:24:48;;;;;;;11.57;9.20;;;24.00;78.60;;;;;;4977468;28;20030;-84
2021/08/30 11:27:20;;;;;;;11.68;8.90;;;24.00;78.60;;;;;;4977382;28;20039;-83
2021/08/30 11:29:49;;;;;;;11.85;8.77;;;24.00;78.70;;;;;;4993244;28;20085;-84
2021/08/30 11:32:16;;;;;;;12.55;8.82;;;24.10;78.70;;;;;;4994653;28;20041;-84
2021/08/30 11:34:43;;;;;;;12.07;9.15;;;24.10;78.70;;;;;;4994714;28;20054;-84
2021/08/30 11:37:12;;;;;;;12.18;8.98;;;24.10;78.70;;;;;;4993852;28;20505;-83
2021/08/30 11:39:41;;;;;;;12.98;9.70;;;24.10;78.60;;;;;;4993857;28;20038;-83
2021/08/30 11:42:13;;;;;;;11.38;9.23;;;24.10;78.50;;;;;;4993269;28;20042;-84
2021/08/30 11:44:40;;;;;;;13.65;9.60;;;24.20;78.60;;;;;;4993356;28;20041;-84
2021/08/30 11:47:10;;;;;;;15.88;9.57;;;24.20;78.60;;;;;;4977254;28;20539;-83
2021/08/30 11:49:47;;;;;;;14.07;9.95;;;24.20;78.60;;;;;;4993481;28;20037;-83
2021/08/30 11:52:15;;;;;;;14.35;9.13;;;24.20;78.50;;;;;;4994320;28;20034;-83
2021/08/30 11:54:53;;;;;;;12.48;9.80;;;24.20;78.40;;;;;;4976794;28;20030;-83
2021/08/30 11:57:20;;;;;;;11.15;9.57;;;24.20;78.30;;;;;;4993147;28;20026;-83
2021/08/30 11:59:51;;;;;;;13.98;8.88;;;24.20;78.30;;;;;;4992875;28;20390;-83
2021/08/30 12:02:18;;;;;;;11.18;8.63;;;24.30;78.30;;;;;;4992861;28;20031;-83
2021/08/30 12:04:46;;;;;;;12.38;9.18;;;24.30;78.20;;;;;;4992822;28;20039;-83
2021/08/30 12:07:17;;;;;;;16.02;9.13;;;24.30;78.30;;;;;;4993067;28;20100;-83
2021/08/30 12:09:51;;;;;;;11.77;9.10;;;24.30;78.30;;;;;;4994471;28;20036;-87
2021/08/30 12:12:23;;;;;;;11.60;8.90;;;24.30;78.20;;;;;;4993080;28;20039;-88
2021/08/30 12:15:13;;;;;;;11.32;8.70;;;24.30;78.20;;;;;;4992988;28;20133;-87
2021/08/30 12:17:50;;;;;;;13.27;9.07;;;24.30;78.20;;;;;;4976848;28;20030;-87
2021/08/30 12:20:21;;;;;;;12.25;9.07;;;24.30;78.10;;;;;;4994039;28;20064;-84
2021/08/30 12:23:00;;;;;;;12.73;8.43;;;24.30;78.10;;;;;;4992537;28;20039;-85
2021/08/30 12:25:36;;;;;;;12.30;8.55;;;24.30;78.10;;;;;;4992444;28;20038;-84
2021/08/30 12:28:03;;;;;;;11.95;8.10;;;24.30;78.10;;;;;;4976671;28;20460;-86
2021/08/30 12:30:31;;;;;;;11.95;8.93;;;24.40;78.10;;;;;;4992300;28;20115;-87
2021/08/30 12:33:00;;;;;;;9.93;8.60;;;24.40;78.10;;;;;;4992651;28;20046;-87
2021/08/30 12:35:31;;;;;;;11.13;8.88;;;24.40;78.10;;;;;;5005741;28;20034;-86
2021/08/30 12:38:00;;;;;;;12.00;8.15;;;24.40;78.10;;;;;;5012997;28;20347;-87